sensor_id;sensor_type;location;lat;lon;timestamp;pressure;altitude;pressure_sealevel;temperature;humidity
33155;BME280;19511;42.682;23.332;2023-03-19T00:01:35;95610.56;;;0.14;100.00
33155;BME280;19511;42.682;23.332;2023-03-19T00:04:00;95705.00;;;0.77;100.00
33155;BME280;19511;42.682;23.332;2023-03-19T00:06:26;95708.94;;;0.88;100.00
33155;BME280;19511;42.682;23.332;2023-03-19T00:08:51;95694.13;;;0.77;100.00
33155;BME280;19511;42.682;23.332;2023-03-19T00:11:17;95608.66;;;0.14;100.00
33155;BME280;19511;42.682;23.332;2023-03-19T00:13:42;95687.63;;;0.69;100.00
33155;BME280;19511;42.682;23.332;2023-03-19T00:16:08;95705.34;;;0.75;100.00
33155;BME280;19511;42.682;23.332;2023-03-19T00:18:33;95692.28;;;0.69;100.00
33155;BME280;19511;42.682;23.332;2023-03-19T00:20:59;95708.16;;;0.88;100.00
33155;BME280;19511;42.682;23.332;2023-03-19T00:23:25;95697.91;;;0.85;100.00
33155;BME280;19511;42.682;23.332;2023-03-19T00:25:52;95700.91;;;0.92;100.00
33155;BME280;19511;42.682;23.332;2023-03-19T00:28:18;95690.28;;;0.78;100.00
33155;BME280;19511;42.682;23.332;2023-03-19T00:30:44;95691.81;;;0.88;100.00
33155;BME280;19511;42.682;23.332;2023-03-19T00:33:09;95667.69;;;0.77;100.00
33155;BME280;19511;42.682;23.332;2023-03-19T00:35:35;95578.38;;;0.16;100.00
33155;BME280;19511;42.682;23.332;2023-03-19T00:38:00;95619.66;;;0.39;100.00
33155;BME280;19511;42.682;23.332;2023-03-19T00:40:26;95586.34;;;0.21;100.00
33155;BME280;19511;42.682;23.332;2023-03-19T00:42:51;95673.81;;;0.74;100.00
33155;BME280;19511;42.682;23.332;2023-03-19T00:45:17;95662.50;;;0.63;100.00
33155;BME280;19511;42.682;23.332;2023-03-19T00:47:42;95664.19;;;0.56;100.00
33155;BME280;19511;42.682;23.332;2023-03-19T00:50:08;95676.47;;;0.62;100.00
33155;BME280;19511;42.682;23.332;2023-03-19T00:52:34;95661.47;;;0.56;100.00
33155;BME280;19511;42.682;23.332;2023-03-19T00:54:59;95669.50;;;0.52;100.00
33155;BME280;19511;42.682;23.332;2023-03-19T00:57:25;95663.19;;;0.60;100.00
33155;BME280;19511;42.682;23.332;2023-03-19T00:59:51;95663.31;;;0.64;100.00
33155;BME280;19511;42.682;23.332;2023-03-19T01:02:16;95664.91;;;0.65;100.00
33155;BME280;19511;42.682;23.332;2023-03-19T01:04:42;95670.56;;;0.60;100.00
33155;BME280;19511;42.682;23.332;2023-03-19T01:07:08;95653.44;;;0.59;100.00
33155;BME280;19511;42.682;23.332;2023-03-19T01:09:33;95663.72;;;0.54;100.00
33155;BME280;19511;42.682;23.332;2023-03-19T01:12:00;95650.13;;;0.32;100.00
33155;BME280;19511;42.682;23.332;2023-03-19T01:14:30;95567.75;;;-0.40;100.00
33155;BME280;19511;42.682;23.332;2023-03-19T01:16:56;95614.06;;;-0.07;100.00
33155;BME280;19511;42.682;23.332;2023-03-19T01:19:22;95661.13;;;0.15;100.00
33155;BME280;19511;42.682;23.332;2023-03-19T01:21:47;95656.53;;;0.07;100.00
33155;BME280;19511;42.682;23.332;2023-03-19T01:24:14;95535.28;;;-0.67;100.00
33155;BME280;19511;42.682;23.332;2023-03-19T01:26:41;95660.53;;;0.09;100.00
33155;BME280;19511;42.682;23.332;2023-03-19T01:29:07;95550.47;;;-0.66;100.00
33155;BME280;19511;42.682;23.332;2023-03-19T01:31:34;95661.97;;;0.07;100.00
33155;BME280;19511;42.682;23.332;2023-03-19T01:34:00;95662.63;;;0.04;100.00
33155;BME280;19511;42.682;23.332;2023-03-19T01:36:28;95640.63;;;-0.04;100.00
33155;BME280;19511;42.682;23.332;2023-03-19T01:38:54;95650.03;;;0.20;100.00
33155;BME280;19511;42.682;23.332;2023-03-19T01:41:21;95658.00;;;0.25;100.00
33155;BME280;19511;42.682;23.332;2023-03-19T01:43:47;95663.38;;;0.34;100.00
33155;BME280;19511;42.682;23.332;2023-03-19T01:46:23;95669.78;;;0.38;100.00
33155;BME280;19511;42.682;23.332;2023-03-19T01:48:53;95660.16;;;0.41;100.00
33155;BME280;19511;42.682;23.332;2023-03-19T01:51:26;95663.13;;;0.48;100.00
33155;BME280;19511;42.682;23.332;2023-03-19T01:53:56;95667.56;;;0.31;100.00
33155;BME280;19511;42.682;23.332;2023-03-19T01:56:28;95662.41;;;0.39;100.00
33155;BME280;19511;42.682;23.332;2023-03-19T01:59:01;95668.03;;;0.34;100.00
33155;BME280;19511;42.682;23.332;2023-03-19T02:01:27;95671.03;;;0.41;100.00
33155;BME280;19511;42.682;23.332;2023-03-19T02:03:57;95658.34;;;0.45;100.00
33155;BME280;19511;42.682;23.332;2023-03-19T02:06:24;95604.47;;;0.17;100.00
33155;BME280;19511;42.682;23.332;2023-03-19T02:08:50;95672.25;;;0.52;100.00
33155;BME280;19511;42.682;23.332;2023-03-19T02:11:17;95666.19;;;0.46;100.00
33155;BME280;19511;42.682;23.332;2023-03-19T02:13:43;95650.66;;;0.26;100.00
33155;BME280;19511;42.682;23.332;2023-03-19T02:16:09;95650.19;;;0.03;100.00
33155;BME280;19511;42.682;23.332;2023-03-19T02:18:38;95666.00;;;0.01;100.00
33155;BME280;19511;42.682;23.332;2023-03-19T02:21:14;95648.38;;;-0.23;100.00
33155;BME280;19511;42.682;23.332;2023-03-19T02:24:05;95663.09;;;-0.24;100.00
33155;BME280;19511;42.682;23.332;2023-03-19T02:26:33;95649.13;;;-0.44;100.00
33155;BME280;19511;42.682;23.332;2023-03-19T02:29:01;95667.03;;;-0.43;100.00
33155;BME280;19511;42.682;23.332;2023-03-19T02:31:28;95637.50;;;-0.53;100.00
33155;BME280;19511;42.682;23.332;2023-03-19T02:36:36;95561.81;;;-1.11;100.00
33155;BME280;19511;42.682;23.332;2023-03-19T02:39:06;95657.31;;;-0.53;100.00
33155;BME280;19511;42.682;23.332;2023-03-19T02:41:33;95583.53;;;-1.11;100.00
33155;BME280;19511;42.682;23.332;2023-03-19T02:44:01;95670.22;;;-0.41;100.00
33155;BME280;19511;42.682;23.332;2023-03-19T02:46:27;95666.09;;;-0.47;100.00
33155;BME280;19511;42.682;23.332;2023-03-19T02:48:52;95670.69;;;-0.39;100.00
33155;BME280;19511;42.682;23.332;2023-03-19T02:51:18;95652.50;;;-0.47;100.00
33155;BME280;19511;42.682;23.332;2023-03-19T02:53:44;95671.91;;;-0.27;100.00
33155;BME280;19511;42.682;23.332;2023-03-19T02:56:10;95565.03;;;-1.09;100.00
33155;BME280;19511;42.682;23.332;2023-03-19T02:58:35;95665.63;;;-0.49;100.00
33155;BME280;19511;42.682;23.332;2023-03-19T03:01:01;95593.56;;;-0.94;100.00
33155;BME280;19511;42.682;23.332;2023-03-19T03:03:26;95674.75;;;-0.54;100.00
33155;BME280;19511;42.682;23.332;2023-03-19T03:05:52;95674.28;;;-0.56;100.00
33155;BME280;19511;42.682;23.332;2023-03-19T03:08:17;95685.28;;;-0.52;100.00
33155;BME280;19511;42.682;23.332;2023-03-19T03:10:43;95657.53;;;-0.67;100.00
33155;BME280;19511;42.682;23.332;2023-03-19T03:13:08;95674.28;;;-0.56;100.00
33155;BME280;19511;42.682;23.332;2023-03-19T03:15:34;95620.56;;;-0.97;100.00
33155;BME280;19511;42.682;23.332;2023-03-19T03:17:59;95577.88;;;-1.36;100.00
33155;BME280;19511;42.682;23.332;2023-03-19T03:20:25;95683.72;;;-0.62;100.00
33155;BME280;19511;42.682;23.332;2023-03-19T03:22:50;95585.34;;;-1.24;100.00
33155;BME280;19511;42.682;23.332;2023-03-19T03:25:16;95692.78;;;-0.49;100.00
33155;BME280;19511;42.682;23.332;2023-03-19T03:27:41;95593.78;;;-1.08;100.00
33155;BME280;19511;42.682;23.332;2023-03-19T03:30:08;95592.81;;;-1.21;100.00
33155;BME280;19511;42.682;23.332;2023-03-19T03:32:35;95703.69;;;-0.58;100.00
33155;BME280;19511;42.682;23.332;2023-03-19T03:35:01;95701.59;;;-0.52;100.00
33155;BME280;19511;42.682;23.332;2023-03-19T03:37:28;95604.94;;;-1.18;100.00
33155;BME280;19511;42.682;23.332;2023-03-19T03:39:53;95679.78;;;-0.73;100.00
33155;BME280;19511;42.682;23.332;2023-03-19T03:42:20;95697.94;;;-0.65;100.00
33155;BME280;19511;42.682;23.332;2023-03-19T03:44:45;95697.66;;;-0.63;100.00
33155;BME280;19511;42.682;23.332;2023-03-19T03:47:11;95700.38;;;-0.63;100.00
33155;BME280;19511;42.682;23.332;2023-03-19T03:49:37;95600.22;;;-1.39;100.00
33155;BME280;19511;42.682;23.332;2023-03-19T03:52:03;95580.44;;;-1.48;100.00
33155;BME280;19511;42.682;23.332;2023-03-19T03:54:28;95701.00;;;-0.67;100.00
33155;BME280;19511;42.682;23.332;2023-03-19T03:56:54;95698.97;;;-0.78;100.00
33155;BME280;19511;42.682;23.332;2023-03-19T03:59:19;95713.81;;;-0.85;100.00
33155;BME280;19511;42.682;23.332;2023-03-19T04:01:45;95679.19;;;-0.96;100.00
33155;BME280;19511;42.682;23.332;2023-03-19T04:04:11;95692.09;;;-0.76;100.00
33155;BME280;19511;42.682;23.332;2023-03-19T04:06:36;95701.03;;;-0.84;100.00
33155;BME280;19511;42.682;23.332;2023-03-19T04:09:02;95702.97;;;-0.85;100.00
33155;BME280;19511;42.682;23.332;2023-03-19T04:11:27;95697.69;;;-0.81;100.00
33155;BME280;19511;42.682;23.332;2023-03-19T04:13:54;95616.31;;;-1.34;100.00
33155;BME280;19511;42.682;23.332;2023-03-19T04:16:25;95597.03;;;-1.32;100.00
33155;BME280;19511;42.682;23.332;2023-03-19T04:18:52;95697.47;;;-0.58;100.00
33155;BME280;19511;42.682;23.332;2023-03-19T04:21:21;95689.66;;;-0.69;100.00
33155;BME280;19511;42.682;23.332;2023-03-19T04:23:46;95700.03;;;-0.62;100.00
33155;BME280;19511;42.682;23.332;2023-03-19T04:26:12;95681.56;;;-0.86;100.00
33155;BME280;19511;42.682;23.332;2023-03-19T04:28:38;95697.19;;;-0.74;100.00
33155;BME280;19511;42.682;23.332;2023-03-19T04:31:05;95705.66;;;-0.76;100.00
33155;BME280;19511;42.682;23.332;2023-03-19T04:33:31;95698.97;;;-0.78;100.00
33155;BME280;19511;42.682;23.332;2023-03-19T04:35:57;95620.28;;;-1.22;100.00
33155;BME280;19511;42.682;23.332;2023-03-19T04:38:24;95599.44;;;-1.57;100.00
33155;BME280;19511;42.682;23.332;2023-03-19T04:40:53;95695.16;;;-1.04;100.00
33155;BME280;19511;42.682;23.332;2023-03-19T04:43:20;95713.06;;;-0.94;100.00
33155;BME280;19511;42.682;23.332;2023-03-19T04:45:46;95618.91;;;-1.46;100.00
33155;BME280;19511;42.682;23.332;2023-03-19T04:48:12;95638.19;;;-1.21;100.00
33155;BME280;19511;42.682;23.332;2023-03-19T04:50:37;95701.34;;;-0.77;100.00
33155;BME280;19511;42.682;23.332;2023-03-19T04:53:03;95703.88;;;-0.72;100.00
33155;BME280;19511;42.682;23.332;2023-03-19T04:55:29;95711.69;;;-0.61;100.00
33155;BME280;19511;42.682;23.332;2023-03-19T04:57:55;95709.88;;;-0.48;100.00
33155;BME280;19511;42.682;23.332;2023-03-19T05:00:20;95673.03;;;-0.67;100.00
33155;BME280;19511;42.682;23.332;2023-03-19T05:02:46;95722.00;;;-0.37;100.00
33155;BME280;19511;42.682;23.332;2023-03-19T05:05:13;95606.50;;;-1.00;100.00
33155;BME280;19511;42.682;23.332;2023-03-19T05:07:39;95709.13;;;-0.19;100.00
33155;BME280;19511;42.682;23.332;2023-03-19T05:10:06;95728.22;;;-0.28;100.00
33155;BME280;19511;42.682;23.332;2023-03-19T05:12:32;95719.91;;;-0.31;100.00
33155;BME280;19511;42.682;23.332;2023-03-19T05:14:57;95720.34;;;-0.21;100.00
33155;BME280;19511;42.682;23.332;2023-03-19T05:17:23;95618.41;;;-0.74;100.00
33155;BME280;19511;42.682;23.332;2023-03-19T05:19:52;95630.84;;;-0.64;100.00
33155;BME280;19511;42.682;23.332;2023-03-19T05:22:21;95717.03;;;0.04;100.00
33155;BME280;19511;42.682;23.332;2023-03-19T05:24:48;95703.75;;;0.02;100.00
33155;BME280;19511;42.682;23.332;2023-03-19T05:27:14;95707.41;;;0.06;100.00
33155;BME280;19511;42.682;23.332;2023-03-19T05:29:39;95720.47;;;0.22;100.00
33155;BME280;19511;42.682;23.332;2023-03-19T05:32:08;95701.91;;;0.15;100.00
33155;BME280;19511;42.682;23.332;2023-03-19T05:34:35;95718.44;;;0.40;100.00
33155;BME280;19511;42.682;23.332;2023-03-19T05:37:00;95722.81;;;0.53;100.00
33155;BME280;19511;42.682;23.332;2023-03-19T05:39:26;95716.97;;;0.63;100.00
33155;BME280;19511;42.682;23.332;2023-03-19T05:41:51;95715.63;;;0.70;100.00
33155;BME280;19511;42.682;23.332;2023-03-19T05:44:17;95679.53;;;0.60;100.00
33155;BME280;19511;42.682;23.332;2023-03-19T05:46:43;95699.09;;;0.75;100.00
33155;BME280;19511;42.682;23.332;2023-03-19T05:49:09;95702.63;;;0.75;100.00
33155;BME280;19511;42.682;23.332;2023-03-19T05:51:35;95722.69;;;0.92;100.00
33155;BME280;19511;42.682;23.332;2023-03-19T05:54:01;95723.72;;;1.00;100.00
33155;BME280;19511;42.682;23.332;2023-03-19T05:56:26;95719.41;;;0.98;100.00
33155;BME280;19511;42.682;23.332;2023-03-19T05:58:52;95727.31;;;1.12;100.00
33155;BME280;19511;42.682;23.332;2023-03-19T06:01:17;95706.28;;;1.13;100.00
33155;BME280;19511;42.682;23.332;2023-03-19T06:03:43;95725.41;;;1.25;100.00
33155;BME280;19511;42.682;23.332;2023-03-19T06:06:08;95721.91;;;1.25;100.00
33155;BME280;19511;42.682;23.332;2023-03-19T06:08:34;95718.28;;;1.33;100.00
33155;BME280;19511;42.682;23.332;2023-03-19T06:10:59;95710.78;;;1.30;100.00
33155;BME280;19511;42.682;23.332;2023-03-19T06:13:25;95720.03;;;1.50;100.00
33155;BME280;19511;42.682;23.332;2023-03-19T06:15:51;95605.38;;;0.76;100.00
33155;BME280;19511;42.682;23.332;2023-03-19T06:18:17;95712.09;;;1.57;100.00
33155;BME280;19511;42.682;23.332;2023-03-19T06:20:43;95723.22;;;1.52;100.00
33155;BME280;19511;42.682;23.332;2023-03-19T06:23:10;95703.91;;;1.57;100.00
33155;BME280;19511;42.682;23.332;2023-03-19T06:25:43;95693.47;;;1.59;100.00
33155;BME280;19511;42.682;23.332;2023-03-19T06:28:10;95722.25;;;1.94;100.00
33155;BME280;19511;42.682;23.332;2023-03-19T06:30:36;95729.31;;;1.95;100.00
33155;BME280;19511;42.682;23.332;2023-03-19T06:33:10;95633.25;;;1.40;100.00
33155;BME280;19511;42.682;23.332;2023-03-19T06:35:35;95730.56;;;2.10;100.00
33155;BME280;19511;42.682;23.332;2023-03-19T06:38:01;95723.06;;;2.19;100.00
33155;BME280;19511;42.682;23.332;2023-03-19T06:40:30;95729.41;;;2.23;100.00
33155;BME280;19511;42.682;23.332;2023-03-19T06:42:56;95729.53;;;2.27;100.00
33155;BME280;19511;42.682;23.332;2023-03-19T06:45:22;95715.75;;;2.36;100.00
33155;BME280;19511;42.682;23.332;2023-03-19T06:47:48;95709.16;;;2.37;100.00
33155;BME280;19511;42.682;23.332;2023-03-19T06:50:14;95719.16;;;2.45;100.00
33155;BME280;19511;42.682;23.332;2023-03-19T06:52:41;95735.78;;;2.52;100.00
33155;BME280;19511;42.682;23.332;2023-03-19T06:55:07;95744.31;;;2.63;100.00
33155;BME280;19511;42.682;23.332;2023-03-19T06:57:37;95740.75;;;2.63;100.00
33155;BME280;19511;42.682;23.332;2023-03-19T07:00:04;95746.56;;;2.73;100.00
33155;BME280;19511;42.682;23.332;2023-03-19T07:02:30;95741.41;;;2.84;100.00
33155;BME280;19511;42.682;23.332;2023-03-19T07:04:55;95740.78;;;3.03;100.00
33155;BME280;19511;42.682;23.332;2023-03-19T07:07:23;95744.84;;;3.09;100.00
33155;BME280;19511;42.682;23.332;2023-03-19T07:09:49;95743.72;;;3.10;100.00
33155;BME280;19511;42.682;23.332;2023-03-19T07:12:25;95741.13;;;3.02;100.00
33155;BME280;19511;42.682;23.332;2023-03-19T07:15:00;95740.94;;;3.23;100.00
33155;BME280;19511;42.682;23.332;2023-03-19T07:17:26;95725.88;;;3.29;100.00
33155;BME280;19511;42.682;23.332;2023-03-19T07:19:52;95747.00;;;3.45;100.00
33155;BME280;19511;42.682;23.332;2023-03-19T07:22:17;95637.31;;;2.89;100.00
33155;BME280;19511;42.682;23.332;2023-03-19T07:24:43;95740.41;;;3.62;100.00
33155;BME280;19511;42.682;23.332;2023-03-19T07:27:09;95745.97;;;3.65;100.00
33155;BME280;19511;42.682;23.332;2023-03-19T07:29:35;95738.50;;;3.78;100.00
33155;BME280;19511;42.682;23.332;2023-03-19T07:32:05;95722.00;;;3.90;100.00
33155;BME280;19511;42.682;23.332;2023-03-19T07:34:31;95723.78;;;3.99;100.00
33155;BME280;19511;42.682;23.332;2023-03-19T07:37:00;95739.47;;;3.86;100.00
33155;BME280;19511;42.682;23.332;2023-03-19T07:39:25;95731.81;;;3.91;100.00
33155;BME280;19511;42.682;23.332;2023-03-19T07:41:51;95742.13;;;3.98;100.00
33155;BME280;19511;42.682;23.332;2023-03-19T07:44:16;95736.31;;;4.16;100.00
33155;BME280;19511;42.682;23.332;2023-03-19T07:46:42;95734.63;;;4.11;100.00
33155;BME280;19511;42.682;23.332;2023-03-19T07:49:08;95734.63;;;4.27;100.00
33155;BME280;19511;42.682;23.332;2023-03-19T07:51:33;95733.91;;;4.30;100.00
33155;BME280;19511;42.682;23.332;2023-03-19T07:53:59;95692.16;;;3.85;100.00
33155;BME280;19511;42.682;23.332;2023-03-19T07:56:24;95717.69;;;4.05;100.00
33155;BME280;19511;42.682;23.332;2023-03-19T07:58:50;95721.72;;;4.28;100.00
33155;BME280;19511;42.682;23.332;2023-03-19T08:01:16;95734.34;;;4.48;100.00
33155;BME280;19511;42.682;23.332;2023-03-19T08:03:45;95730.41;;;4.65;100.00
33155;BME280;19511;42.682;23.332;2023-03-19T08:06:12;95725.22;;;4.80;100.00
33155;BME280;19511;42.682;23.332;2023-03-19T08:08:38;95724.59;;;4.86;100.00
33155;BME280;19511;42.682;23.332;2023-03-19T08:11:04;95716.59;;;4.97;100.00
33155;BME280;19511;42.682;23.332;2023-03-19T08:13:29;95727.06;;;5.11;100.00
33155;BME280;19511;42.682;23.332;2023-03-19T08:15:55;95714.28;;;5.19;100.00
33155;BME280;19511;42.682;23.332;2023-03-19T08:18:21;95727.50;;;5.52;100.00
33155;BME280;19511;42.682;23.332;2023-03-19T08:20:47;95730.19;;;5.72;100.00
33155;BME280;19511;42.682;23.332;2023-03-19T08:23:13;95723.72;;;5.84;100.00
33155;BME280;19511;42.682;23.332;2023-03-19T08:25:41;95713.81;;;5.99;100.00
33155;BME280;19511;42.682;23.332;2023-03-19T08:28:07;95627.97;;;5.32;100.00
33155;BME280;19511;42.682;23.332;2023-03-19T08:30:37;95722.25;;;5.90;100.00
33155;BME280;19511;42.682;23.332;2023-03-19T08:33:04;95721.97;;;5.95;100.00
33155;BME280;19511;42.682;23.332;2023-03-19T08:35:30;95722.19;;;6.06;100.00
33155;BME280;19511;42.682;23.332;2023-03-19T08:37:59;95725.16;;;5.97;100.00
33155;BME280;19511;42.682;23.332;2023-03-19T08:40:24;95725.25;;;6.01;100.00
33155;BME280;19511;42.682;23.332;2023-03-19T08:42:50;95723.56;;;6.19;100.00
33155;BME280;19511;42.682;23.332;2023-03-19T08:45:16;95718.69;;;6.32;100.00
33155;BME280;19511;42.682;23.332;2023-03-19T08:47:42;95630.94;;;5.93;100.00
33155;BME280;19511;42.682;23.332;2023-03-19T08:50:08;95708.69;;;6.47;100.00
33155;BME280;19511;42.682;23.332;2023-03-19T08:52:34;95685.75;;;6.36;98.84
33155;BME280;19511;42.682;23.332;2023-03-19T08:54:59;95701.78;;;6.57;99.88
33155;BME280;19511;42.682;23.332;2023-03-19T08:57:25;95686.34;;;6.76;98.58
33155;BME280;19511;42.682;23.332;2023-03-19T08:59:51;95697.06;;;6.84;96.94
33155;BME280;19511;42.682;23.332;2023-03-19T09:02:17;95667.44;;;6.74;98.73
33155;BME280;19511;42.682;23.332;2023-03-19T09:04:47;95670.31;;;7.15;97.35
33155;BME280;19511;42.682;23.332;2023-03-19T09:07:13;95688.25;;;7.36;90.83
33155;BME280;19511;42.682;23.332;2023-03-19T09:09:41;95668.91;;;7.29;89.62
33155;BME280;19511;42.682;23.332;2023-03-19T09:12:13;95663.13;;;7.41;88.81
33155;BME280;19511;42.682;23.332;2023-03-19T09:14:39;95677.13;;;7.63;84.32
33155;BME280;19511;42.682;23.332;2023-03-19T09:17:06;95652.63;;;7.50;87.00
33155;BME280;19511;42.682;23.332;2023-03-19T09:19:32;95588.78;;;7.34;89.18
33155;BME280;19511;42.682;23.332;2023-03-19T09:22:05;95658.91;;;7.96;81.63
33155;BME280;19511;42.682;23.332;2023-03-19T09:24:30;95657.94;;;8.18;74.83
33155;BME280;19511;42.682;23.332;2023-03-19T09:26:56;95663.56;;;8.33;72.78
33155;BME280;19511;42.682;23.332;2023-03-19T09:29:21;95646.16;;;8.22;70.25
33155;BME280;19511;42.682;23.332;2023-03-19T09:31:47;95647.84;;;8.37;65.92
33155;BME280;19511;42.682;23.332;2023-03-19T09:34:12;95578.34;;;8.10;65.78
33155;BME280;19511;42.682;23.332;2023-03-19T09:36:38;95660.75;;;8.89;63.73
33155;BME280;19511;42.682;23.332;2023-03-19T09:39:05;95657.28;;;8.99;59.65
33155;BME280;19511;42.682;23.332;2023-03-19T09:41:44;95663.56;;;8.99;61.40
33155;BME280;19511;42.682;23.332;2023-03-19T09:44:27;95656.81;;;8.82;60.10
33155;BME280;19511;42.682;23.332;2023-03-19T09:47:11;95571.91;;;8.50;63.08
33155;BME280;19511;42.682;23.332;2023-03-19T09:49:46;95661.31;;;9.27;61.34
33155;BME280;19511;42.682;23.332;2023-03-19T09:54:48;95642.44;;;9.47;58.49
33155;BME280;19511;42.682;23.332;2023-03-19T09:57:17;95634.94;;;9.47;57.88
33155;BME280;19511;42.682;23.332;2023-03-19T09:59:46;95638.09;;;9.50;60.83
33155;BME280;19511;42.682;23.332;2023-03-19T10:02:40;95644.44;;;9.50;57.86
33155;BME280;19511;42.682;23.332;2023-03-19T10:05:44;95636.53;;;9.59;59.04
33155;BME280;19511;42.682;23.332;2023-03-19T10:09:04;95630.25;;;9.73;58.00
33155;BME280;19511;42.682;23.332;2023-03-19T10:16:54;95623.56;;;10.00;54.67
33155;BME280;19511;42.682;23.332;2023-03-19T10:19:37;95608.16;;;9.99;53.00
33155;BME280;19511;42.682;23.332;2023-03-19T10:22:07;95602.66;;;10.09;56.10
33155;BME280;19511;42.682;23.332;2023-03-19T10:24:39;95608.13;;;10.35;51.76
33155;BME280;19511;42.682;23.332;2023-03-19T10:27:14;95517.38;;;9.97;53.48
33155;BME280;19511;42.682;23.332;2023-03-19T10:29:40;95604.19;;;10.47;51.38
33155;BME280;19511;42.682;23.332;2023-03-19T10:34:52;95552.81;;;10.53;52.21
33155;BME280;19511;42.682;23.332;2023-03-19T10:37:23;95574.03;;;10.92;52.09
33155;BME280;19511;42.682;23.332;2023-03-19T10:39:52;95564.09;;;10.98;51.78
33155;BME280;19511;42.682;23.332;2023-03-19T10:47:37;95549.22;;;11.37;50.07
33155;BME280;19511;42.682;23.332;2023-03-19T10:50:03;95542.06;;;11.43;48.61
33155;BME280;19511;42.682;23.332;2023-03-19T10:52:34;95535.03;;;11.32;48.45
33155;BME280;19511;42.682;23.332;2023-03-19T10:55:16;95527.06;;;11.41;48.25
33155;BME280;19511;42.682;23.332;2023-03-19T10:57:44;95533.69;;;11.58;48.88
33155;BME280;19511;42.682;23.332;2023-03-19T11:02:50;95522.75;;;11.85;47.79
33155;BME280;19511;42.682;23.332;2023-03-19T11:07:49;95527.28;;;11.65;48.06
33155;BME280;19511;42.682;23.332;2023-03-19T11:10:18;95509.84;;;11.68;48.96
33155;BME280;19511;42.682;23.332;2023-03-19T11:12:53;95475.09;;;11.56;48.70
33155;BME280;19511;42.682;23.332;2023-03-19T11:15:33;95513.09;;;12.04;47.44
33155;BME280;19511;42.682;23.332;2023-03-19T11:18:27;95509.56;;;12.04;46.65
33155;BME280;19511;42.682;23.332;2023-03-19T11:20:57;95503.13;;;12.11;47.02
33155;BME280;19511;42.682;23.332;2023-03-19T11:23:30;95495.88;;;12.24;46.82
33155;BME280;19511;42.682;23.332;2023-03-19T11:26:01;95404.03;;;11.80;47.11
33155;BME280;19511;42.682;23.332;2023-03-19T11:28:28;95481.78;;;12.46;46.65
33155;BME280;19511;42.682;23.332;2023-03-19T11:33:42;95487.97;;;12.57;44.80
33155;BME280;19511;42.682;23.332;2023-03-19T11:41:48;95469.72;;;12.60;46.25
33155;BME280;19511;42.682;23.332;2023-03-19T11:44:19;95459.16;;;12.78;48.29
33155;BME280;19511;42.682;23.332;2023-03-19T11:46:58;95461.56;;;13.03;47.45
33155;BME280;19511;42.682;23.332;2023-03-19T11:52:40;95451.09;;;13.15;44.32
33155;BME280;19511;42.682;23.332;2023-03-19T11:55:21;95448.22;;;13.22;43.77
33155;BME280;19511;42.682;23.332;2023-03-19T12:09:18;95438.84;;;13.63;45.15
33155;BME280;19511;42.682;23.332;2023-03-19T12:11:56;95435.41;;;13.79;45.13
33155;BME280;19511;42.682;23.332;2023-03-19T12:17:21;95416.38;;;13.78;43.97
33155;BME280;19511;42.682;23.332;2023-03-19T12:22:57;95416.00;;;13.76;45.23
33155;BME280;19511;42.682;23.332;2023-03-19T12:25:34;95408.91;;;13.95;44.83
33155;BME280;19511;42.682;23.332;2023-03-19T12:36:37;95399.63;;;14.21;45.20
33155;BME280;19511;42.682;23.332;2023-03-19T12:39:11;95391.22;;;14.25;43.21
33155;BME280;19511;42.682;23.332;2023-03-19T12:41:41;95388.25;;;14.16;44.07
33155;BME280;19511;42.682;23.332;2023-03-19T12:44:17;95389.84;;;14.33;44.60
33155;BME280;19511;42.682;23.332;2023-03-19T12:52:11;95300.00;;;13.76;43.20
33155;BME280;19511;42.682;23.332;2023-03-19T12:54:46;95306.16;;;13.87;43.43
33155;BME280;19511;42.682;23.332;2023-03-19T12:57:36;95374.50;;;14.45;42.74
33155;BME280;19511;42.682;23.332;2023-03-19T13:00:29;95372.28;;;14.57;43.47
33155;BME280;19511;42.682;23.332;2023-03-19T13:08:21;95365.69;;;15.04;42.20
33155;BME280;19511;42.682;23.332;2023-03-19T13:10:47;95339.03;;;14.86;42.41
33155;BME280;19511;42.682;23.332;2023-03-19T13:13:40;95357.84;;;14.98;41.93
33155;BME280;19511;42.682;23.332;2023-03-19T13:19:15;95337.38;;;15.05;41.97
33155;BME280;19511;42.682;23.332;2023-03-19T13:21:44;95334.00;;;15.14;41.72
33155;BME280;19511;42.682;23.332;2023-03-19T13:24:41;95337.09;;;15.16;40.98
33155;BME280;19511;42.682;23.332;2023-03-19T13:30:36;95330.69;;;15.19;41.19
33155;BME280;19511;42.682;23.332;2023-03-19T13:32:52;95321.28;;;15.13;40.96
33155;BME280;19511;42.682;23.332;2023-03-19T13:35:44;95313.00;;;15.26;40.77
33155;BME280;19511;42.682;23.332;2023-03-19T13:38:47;95332.78;;;15.31;40.92
33155;BME280;19511;42.682;23.332;2023-03-19T13:44:23;95332.03;;;15.44;42.31
33155;BME280;19511;42.682;23.332;2023-03-19T13:46:48;95330.78;;;15.61;42.00
33155;BME280;19511;42.682;23.332;2023-03-19T13:49:33;95322.66;;;15.83;41.61
33155;BME280;19511;42.682;23.332;2023-03-19T13:52:01;95330.41;;;15.92;40.65
33155;BME280;19511;42.682;23.332;2023-03-19T13:54:37;95324.81;;;15.92;41.47
33155;BME280;19511;42.682;23.332;2023-03-19T13:59:40;95310.25;;;15.55;41.55
33155;BME280;19511;42.682;23.332;2023-03-19T14:05:01;95320.63;;;15.55;41.32
33155;BME280;19511;42.682;23.332;2023-03-19T14:07:35;95291.53;;;15.56;40.80
33155;BME280;19511;42.682;23.332;2023-03-19T14:10:29;95311.00;;;15.72;40.44
33155;BME280;19511;42.682;23.332;2023-03-19T14:13:05;95279.56;;;15.55;40.04
33155;BME280;19511;42.682;23.332;2023-03-19T14:15:32;95310.00;;;15.79;40.34
33155;BME280;19511;42.682;23.332;2023-03-19T14:18:01;95305.03;;;15.87;41.19
33155;BME280;19511;42.682;23.332;2023-03-19T14:20:32;95293.13;;;15.70;40.95
33155;BME280;19511;42.682;23.332;2023-03-19T14:23:17;95230.34;;;15.35;41.83